Time;durP1;ratioP1;P1;durP2;ratioP2;P2;SDS_P1;SDS_P2;PMS_P1;PMS_P2;Temp;Humidity;BMP_temperature;BMP_pressure;BME280_temperature;BME280_humidity;BME280_pressure;Samples;Min_cycle;Max_cycle;Signal;HPM_P1;HPM_P2
2023/04/26 00:00:10;;;;;;;8.82;4.47;;;23.10;57.70;;;;;;4789574;29;20066;-73
2023/04/26 00:02:36;;;;;;;6.60;3.90;;;23.10;57.70;;;;;;4785269;29;20148;-73
2023/04/26 00:05:02;;;;;;;8.68;4.88;;;23.10;57.60;;;;;;4786830;29;20051;-74
2023/04/26 00:07:29;;;;;;;11.65;4.63;;;23.00;57.60;;;;;;4786918;29;20505;-74
2023/04/26 00:09:55;;;;;;;8.82;4.78;;;23.10;57.70;;;;;;4786805;29;20512;-72
2023/04/26 00:12:21;;;;;;;8.70;5.40;;;23.10;57.70;;;;;;4786746;29;20051;-74
2023/04/26 00:14:47;;;;;;;7.85;4.47;;;22.90;57.60;;;;;;4786743;29;20059;-74
2023/04/26 00:17:32;;;;;;;5.30;3.72;;;23.00;57.70;;;;;;4774149;29;20147;-73
2023/04/26 00:19:58;;;;;;;13.93;5.13;;;23.00;57.70;;;;;;4786561;29;20181;-74
2023/04/26 00:22:24;;;;;;;7.55;5.00;;;22.90;57.70;;;;;;4786711;29;20417;-72
2023/04/26 00:24:51;;;;;;;5.55;3.90;;;22.90;57.90;;;;;;4803438;29;20047;-74
2023/04/26 00:27:17;;;;;;;9.45;4.30;;;22.90;57.90;;;;;;4806814;29;20063;-72
2023/04/26 00:29:43;;;;;;;6.40;4.38;;;22.90;57.80;;;;;;4805196;29;20038;-72
2023/04/26 00:32:09;;;;;;;11.15;4.50;;;22.90;57.80;;;;;;4805495;29;20039;-74
2023/04/26 00:34:36;;;;;;;9.40;5.00;;;22.80;57.60;;;;;;4805710;29;20039;-73
2023/04/26 00:37:04;;;;;;;7.22;4.25;;;22.80;57.70;;;;;;4805365;29;20055;-74
2023/04/26 00:39:30;;;;;;;7.68;4.40;;;22.90;57.80;;;;;;4806781;29;20027;-72
2023/04/26 00:41:57;;;;;;;5.50;4.72;;;22.80;57.70;;;;;;4820459;29;20068;-74
2023/04/26 00:44:23;;;;;;;11.05;5.50;;;22.80;57.80;;;;;;4806521;29;20047;-74
2023/04/26 00:46:51;;;;;;;9.05;4.93;;;22.80;57.90;;;;;;4814537;29;20432;-74
2023/04/26 00:49:21;;;;;;;6.78;4.35;;;22.90;58.10;;;;;;4823480;29;20039;-73
2023/04/26 00:51:50;;;;;;;6.72;5.15;;;22.90;58.10;;;;;;4824394;29;20435;-72
2023/04/26 00:54:19;;;;;;;13.40;5.43;;;22.90;57.90;;;;;;4823361;29;20038;-74
2023/04/26 00:56:46;;;;;;;10.07;5.47;;;22.80;57.80;;;;;;4837655;29;20043;-73
2023/04/26 00:59:12;;;;;;;11.55;5.30;;;22.90;57.90;;;;;;4822941;29;20034;-73
2023/04/26 01:01:41;;;;;;;9.93;5.45;;;22.90;57.90;;;;;;4838236;29;20066;-74
2023/04/26 01:04:07;;;;;;;9.48;5.78;;;22.80;57.90;;;;;;4823135;29;20038;-73
2023/04/26 01:06:34;;;;;;;10.65;5.40;;;23.00;57.90;;;;;;4824416;29;20034;-74
2023/04/26 01:09:07;;;;;;;12.90;5.70;;;22.90;57.80;;;;;;4837833;29;20034;-72
2023/04/26 01:11:34;;;;;;;11.38;5.00;;;23.00;57.70;;;;;;4838564;29;20042;-74
2023/04/26 01:14:02;;;;;;;9.77;4.65;;;22.90;57.60;;;;;;4838171;29;20415;-72
2023/04/26 01:16:29;;;;;;;11.43;5.75;;;23.10;57.60;;;;;;4824111;29;20171;-74
2023/04/26 01:18:56;;;;;;;10.98;6.18;;;23.00;57.60;;;;;;4823893;29;20352;-73
2023/04/26 01:21:23;;;;;;;11.77;5.85;;;22.90;57.60;;;;;;4837904;29;20117;-74
2023/04/26 01:23:50;;;;;;;11.45;5.90;;;22.90;57.80;;;;;;4838045;29;20042;-73
2023/04/26 01:26:17;;;;;;;14.20;6.18;;;22.80;57.70;;;;;;4823719;29;20038;-73
2023/04/26 01:28:45;;;;;;;9.90;5.68;;;22.80;57.70;;;;;;4823600;29;20502;-73
2023/04/26 01:31:11;;;;;;;9.30;5.72;;;22.70;57.90;;;;;;4837581;29;20053;-73
2023/04/26 01:33:37;;;;;;;8.82;6.03;;;22.70;58.00;;;;;;4824323;29;20106;-72
2023/04/26 01:36:10;;;;;;;10.90;6.60;;;22.70;58.00;;;;;;4823982;29;20259;-73
2023/04/26 01:38:36;;;;;;;8.55;5.60;;;22.60;57.90;;;;;;4808614;29;20052;-74
2023/04/26 01:41:02;;;;;;;12.07;5.95;;;22.60;57.90;;;;;;4807351;29;20071;-73
2023/04/26 01:43:31;;;;;;;17.00;6.75;;;22.60;58.10;;;;;;4807703;29;20046;-73
2023/04/26 01:45:57;;;;;;;10.48;6.40;;;22.70;58.20;;;;;;4822856;29;20046;-73
2023/04/26 01:48:30;;;;;;;11.65;5.78;;;22.60;58.10;;;;;;4822493;29;20038;-72
2023/04/26 01:50:56;;;;;;;9.40;5.78;;;22.60;58.10;;;;;;4823572;29;20046;-72
2023/04/26 01:53:22;;;;;;;12.15;5.75;;;22.60;58.00;;;;;;4823340;29;20026;-74
2023/04/26 01:55:48;;;;;;;10.23;5.68;;;22.80;58.10;;;;;;4823937;29;20034;-73
2023/04/26 01:58:14;;;;;;;14.85;6.38;;;22.60;58.00;;;;;;4821999;29;20049;-73
2023/04/26 02:00:40;;;;;;;8.13;6.43;;;22.70;58.00;;;;;;4821931;29;20078;-73
2023/04/26 02:03:06;;;;;;;10.20;5.57;;;22.70;57.80;;;;;;4853199;29;20352;-74
2023/04/26 02:05:32;;;;;;;12.98;6.53;;;22.80;57.80;;;;;;4825240;29;20137;-72
2023/04/26 02:07:58;;;;;;;11.82;6.63;;;22.70;57.60;;;;;;4840206;29;20117;-74
2023/04/26 02:10:24;;;;;;;11.10;5.75;;;22.90;57.70;;;;;;4825523;29;20686;-74
2023/04/26 02:12:50;;;;;;;10.38;6.28;;;22.90;57.70;;;;;;4841486;29;20053;-74
2023/04/26 02:15:16;;;;;;;12.45;6.85;;;22.90;57.60;;;;;;4841171;29;20470;-72
2023/04/26 02:17:42;;;;;;;11.07;6.80;;;22.90;57.60;;;;;;4855470;29;20555;-73
2023/04/26 02:20:09;;;;;;;12.68;7.38;;;22.70;57.60;;;;;;4840012;29;20071;-73
2023/04/26 02:22:35;;;;;;;13.35;7.35;;;22.90;57.80;;;;;;4840959;29;20108;-73
2023/04/26 02:25:02;;;;;;;8.38;7.03;;;22.80;57.70;;;;;;4840311;29;20042;-74
2023/04/26 02:27:31;;;;;;;15.95;7.20;;;22.80;57.80;;;;;;4840108;29;20057;-72
2023/04/26 02:29:57;;;;;;;20.45;8.02;;;22.70;57.80;;;;;;4839879;29;20038;-72
2023/04/26 02:32:23;;;;;;;12.20;7.78;;;22.80;57.90;;;;;;4840920;29;20038;-74
2023/04/26 02:34:49;;;;;;;12.55;7.95;;;22.70;57.90;;;;;;4840083;29;20170;-73
2023/04/26 02:37:15;;;;;;;13.02;7.57;;;22.60;57.80;;;;;;4840784;29;20511;-73
2023/04/26 02:39:41;;;;;;;12.00;7.78;;;22.60;57.90;;;;;;4854279;29;20037;-73
2023/04/26 02:42:09;;;;;;;14.63;8.57;;;22.70;57.90;;;;;;4818996;29;20349;-73
2023/04/26 02:44:38;;;;;;;16.35;7.85;;;22.50;57.80;;;;;;4805407;29;20133;-73
2023/04/26 02:47:04;;;;;;;14.85;8.40;;;22.60;57.90;;;;;;4805238;29;20051;-74
2023/04/26 02:49:30;;;;;;;13.90;7.13;;;22.50;57.90;;;;;;4805306;29;20132;-72
2023/04/26 02:51:56;;;;;;;16.50;8.10;;;22.50;58.20;;;;;;4820210;29;20038;-73
2023/04/26 02:54:23;;;;;;;9.60;7.30;;;22.50;58.20;;;;;;4805206;29;20038;-72
2023/04/26 02:56:49;;;;;;;15.30;8.27;;;22.60;58.20;;;;;;4805028;29;20083;-72
2023/04/26 02:59:15;;;;;;;15.82;8.02;;;22.50;58.20;;;;;;4805170;29;20042;-73
2023/04/26 03:01:42;;;;;;;14.10;8.57;;;22.70;58.20;;;;;;4789757;29;20141;-73
2023/04/26 03:04:08;;;;;;;16.13;8.80;;;22.50;58.20;;;;;;4805138;29;21143;-73
2023/04/26 03:06:36;;;;;;;12.55;8.77;;;22.50;58.20;;;;;;4790242;29;20034;-74
2023/04/26 03:09:04;;;;;;;12.20;8.85;;;22.50;58.30;;;;;;4804976;29;20046;-74
2023/04/26 03:11:30;;;;;;;12.95;8.57;;;22.60;58.30;;;;;;4775465;29;20046;-72
2023/04/26 03:13:56;;;;;;;14.93;8.75;;;22.60;58.30;;;;;;4818231;29;20126;-73
2023/04/26 03:16:22;;;;;;;10.85;8.20;;;22.50;58.30;;;;;;4836166;29;20475;-74
2023/04/26 03:18:49;;;;;;;12.98;8.00;;;22.50;58.20;;;;;;4822342;29;20034;-72
2023/04/26 03:21:15;;;;;;;14.13;8.55;;;22.60;58.30;;;;;;4825460;29;20030;-73
2023/04/26 03:23:41;;;;;;;10.43;7.13;;;22.60;58.30;;;;;;4840016;29;20429;-72
2023/04/26 03:26:08;;;;;;;15.48;8.93;;;22.60;58.10;;;;;;4839957;29;20043;-74
2023/04/26 03:28:34;;;;;;;9.60;6.07;;;22.70;58.00;;;;;;4825756;29;20095;-74
2023/04/26 03:31:00;;;;;;;3.85;1.60;;;22.60;57.90;;;;;;4839766;29;20034;-73
2023/04/26 03:33:30;;;;;;;1.63;1.50;;;22.60;56.90;;;;;;4839852;29;20049;-72
2023/04/26 03:35:56;;;;;;;1.20;1.10;;;22.80;57.10;;;;;;4809356;29;20042;-72
2023/04/26 03:38:22;;;;;;;1.00;1.00;;;22.70;57.40;;;;;;4839556;29;20046;-73
2023/04/26 03:40:49;;;;;;;1.10;1.10;;;22.80;57.40;;;;;;4839786;29;20376;-73
2023/04/26 03:43:15;;;;;;;0.82;0.82;;;22.70;57.30;;;;;;4839640;29;20472;-73
2023/04/26 03:45:41;;;;;;;4.07;1.17;;;22.70;57.30;;;;;;4836750;29;20030;-73
2023/04/26 03:48:07;;;;;;;3.70;0.88;;;22.70;56.20;;;;;;4842450;29;20058;-73
2023/04/26 03:50:33;;;;;;;0.77;0.77;;;22.60;57.50;;;;;;4842564;29;20030;-73
2023/04/26 03:53:00;;;;;;;0.70;0.70;;;22.60;57.20;;;;;;4827017;29;20451;-73
2023/04/26 03:55:26;;;;;;;1.08;0.40;;;22.60;57.10;;;;;;4827059;29;20048;-73
2023/04/26 03:57:52;;;;;;;0.77;0.75;;;22.50;56.50;;;;;;4843426;29;20133;-72
2023/04/26 04:00:18;;;;;;;3.42;0.90;;;22.60;57.00;;;;;;4822326;29;20089;-72
2023/04/26 04:02:47;;;;;;;0.70;0.70;;;22.60;57.20;;;;;;4822671;29;20081;-73
2023/04/26 04:05:21;;;;;;;0.75;0.75;;;22.50;57.40;;;;;;4822425;29;20136;-73
2023/04/26 04:07:48;;;;;;;0.52;0.52;;;22.60;56.70;;;;;;4807589;29;20054;-72
2023/04/26 04:10:15;;;;;;;0.60;0.50;;;22.60;56.20;;;;;;4815163;29;20380;-78
2023/04/26 04:12:42;;;;;;;0.70;0.70;;;22.60;57.30;;;;;;4751676;30;20089;-78
2023/04/26 04:15:09;;;;;;;1.08;0.93;;;22.70;58.60;;;;;;4769280;30;20055;-76
2023/04/26 04:17:37;;;;;;;1.42;1.10;;;22.90;59.20;;;;;;4769819;30;20555;-76
2023/04/26 04:20:06;;;;;;;0.90;0.90;;;23.10;60.50;;;;;;4754597;30;20047;-77
2023/04/26 04:22:32;;;;;;;0.88;0.80;;;23.30;60.90;;;;;;4739829;30;20430;-78
2023/04/26 04:24:58;;;;;;;1.40;1.30;;;23.30;62.20;;;;;;4769066;30;20047;-78
2023/04/26 04:27:27;;;;;;;0.82;0.68;;;23.20;66.40;;;;;;4768992;30;20477;-77
2023/04/26 04:29:55;;;;;;;1.17;1.00;;;23.40;61.10;;;;;;4753990;30;20044;-77
2023/04/26 04:32:23;;;;;;;0.88;0.85;;;23.80;60.80;;;;;;4801752;29;20086;-78
2023/04/26 04:34:52;;;;;;;0.65;0.63;;;23.80;57.00;;;;;;4788907;29;20118;-73
2023/04/26 04:37:20;;;;;;;0.50;0.50;;;23.70;55.00;;;;;;4788901;29;20500;-74
2023/04/26 04:39:46;;;;;;;2.03;0.50;;;23.60;54.50;;;;;;4774247;29;20237;-74
2023/04/26 04:42:13;;;;;;;0.80;0.50;;;23.60;55.00;;;;;;4774154;29;20039;-72
2023/04/26 04:44:40;;;;;;;0.60;0.60;;;23.30;55.10;;;;;;4789144;29;20083;-73
2023/04/26 04:47:06;;;;;;;0.68;0.60;;;23.40;55.50;;;;;;4789034;29;20492;-73
2023/04/26 04:49:32;;;;;;;0.40;0.40;;;23.20;56.00;;;;;;4803813;29;20415;-73
2023/04/26 04:51:59;;;;;;;0.70;0.57;;;23.30;56.40;;;;;;4797832;29;20046;-72
2023/04/26 04:54:26;;;;;;;0.57;0.57;;;23.10;56.50;;;;;;4825209;29;20502;-74
2023/04/26 04:56:52;;;;;;;0.60;0.60;;;23.10;56.80;;;;;;4824956;29;20046;-74
2023/04/26 04:59:19;;;;;;;0.52;0.50;;;23.10;57.10;;;;;;4824650;29;20148;-72
2023/04/26 05:01:47;;;;;;;0.60;0.60;;;22.90;52.40;;;;;;4794822;29;20061;-73
2023/04/26 05:04:14;;;;;;;0.63;0.63;;;23.00;52.30;;;;;;4824641;29;20049;-73
2023/04/26 05:06:40;;;;;;;1.75;0.50;;;23.00;51.20;;;;;;4809225;29;20461;-73
2023/04/26 05:09:08;;;;;;;0.40;0.40;;;23.10;51.70;;;;;;4839684;29;20050;-72
2023/04/26 05:11:35;;;;;;;1.25;0.75;;;23.00;49.70;;;;;;4824418;29;20034;-73
2023/04/26 05:14:02;;;;;;;0.57;0.55;;;23.10;50.90;;;;;;4803306;29;20059;-72
2023/04/26 05:16:30;;;;;;;0.95;0.63;;;23.10;51.00;;;;;;4788188;29;20078;-73
2023/04/26 05:18:57;;;;;;;1.33;0.70;;;23.10;53.40;;;;;;4803158;29;20150;-72
2023/04/26 05:21:24;;;;;;;1.27;1.05;;;23.10;50.30;;;;;;4803118;29;20125;-74
2023/04/26 05:23:50;;;;;;;1.38;0.73;;;23.20;50.30;;;;;;4803031;29;20047;-73
2023/04/26 05:26:17;;;;;;;0.95;0.73;;;23.20;53.00;;;;;;4802975;29;20570;-73
2023/04/26 05:29:12;;;;;;;0.68;0.68;;;23.10;55.80;;;;;;4785025;30;20066;-74
2023/04/26 05:31:44;;;;;;;2.92;1.00;;;23.10;56.40;;;;;;4785164;30;20093;-73
2023/04/26 05:34:28;;;;;;;0.70;0.57;;;23.20;55.10;;;;;;4784971;30;20051;-72
2023/04/26 05:36:57;;;;;;;0.93;0.60;;;23.30;53.90;;;;;;4784935;30;20047;-73
2023/04/26 05:39:23;;;;;;;2.60;0.63;;;23.20;49.80;;;;;;4785034;30;20077;-73
2023/04/26 05:41:49;;;;;;;0.88;0.57;;;23.20;49.90;;;;;;4784708;29;20073;-75
2023/04/26 05:44:15;;;;;;;1.15;0.70;;;23.20;51.20;;;;;;4784589;30;20059;-73
2023/04/26 05:46:42;;;;;;;2.80;0.52;;;23.20;49.80;;;;;;4784949;30;20472;-75
2023/04/26 05:49:09;;;;;;;1.35;0.50;;;23.30;58.10;;;;;;4785115;30;20047;-76
2023/04/26 05:51:35;;;;;;;0.47;0.47;;;23.30;58.10;;;;;;4796660;29;20043;-76
2023/04/26 05:54:01;;;;;;;0.50;0.50;;;23.20;57.20;;;;;;4788003;29;20099;-75
2023/04/26 05:56:27;;;;;;;1.75;0.95;;;23.40;56.60;;;;;;4816941;29;20529;-75
2023/04/26 05:58:55;;;;;;;0.50;0.50;;;23.20;56.30;;;;;;4803124;29;20050;-76
2023/04/26 06:01:21;;;;;;;1.30;0.85;;;23.20;57.00;;;;;;4802647;29;20070;-76
2023/04/26 06:03:47;;;;;;;1.45;0.60;;;23.30;55.90;;;;;;4803115;29;20038;-75
2023/04/26 06:06:15;;;;;;;0.52;0.52;;;23.20;51.30;;;;;;4787722;29;20057;-76
2023/04/26 06:08:42;;;;;;;2.72;0.70;;;23.10;56.70;;;;;;4811572;29;20065;-75
2023/04/26 06:11:10;;;;;;;0.75;0.75;;;23.10;59.30;;;;;;4823765;29;20537;-75
2023/04/26 06:13:36;;;;;;;1.35;0.95;;;23.20;57.60;;;;;;4824232;29;20042;-75
2023/04/26 06:16:02;;;;;;;1.33;0.80;;;23.10;56.20;;;;;;4823393;29;20404;-75
2023/04/26 06:18:28;;;;;;;0.57;0.57;;;23.10;53.40;;;;;;4823609;29;20046;-74
2023/04/26 06:20:54;;;;;;;1.45;0.63;;;23.10;56.60;;;;;;4823209;29;20061;-75
2023/04/26 06:23:20;;;;;;;0.68;0.65;;;23.00;55.90;;;;;;4823360;29;20049;-74
2023/04/26 06:25:46;;;;;;;1.02;0.88;;;23.10;54.70;;;;;;4835334;29;20042;-75
2023/04/26 06:28:13;;;;;;;0.80;0.70;;;23.20;57.10;;;;;;4820539;29;20181;-76
2023/04/26 06:30:39;;;;;;;0.65;0.60;;;23.00;54.40;;;;;;4790281;29;20399;-79
2023/04/26 06:33:05;;;;;;;0.60;0.60;;;23.20;52.10;;;;;;4802910;29;20054;-75
2023/04/26 06:35:32;;;;;;;0.80;0.65;;;23.10;51.30;;;;;;4818614;29;20053;-72
2023/04/26 06:37:59;;;;;;;0.50;0.50;;;23.00;54.10;;;;;;4803320;29;20121;-75
2023/04/26 06:40:25;;;;;;;0.40;0.40;;;23.00;50.50;;;;;;4818849;29;20046;-72
2023/04/26 06:42:53;;;;;;;0.35;0.30;;;23.00;53.60;;;;;;4818368;29;20042;-76
2023/04/26 06:45:37;;;;;;;0.50;0.50;;;22.90;54.20;;;;;;4818956;29;20467;-78
2023/04/26 06:48:04;;;;;;;0.63;0.63;;;22.90;54.90;;;;;;4805022;29;20077;-75
2023/04/26 06:50:36;;;;;;;0.50;0.50;;;22.90;55.50;;;;;;4832374;29;20130;-76
2023/04/26 06:53:09;;;;;;;0.55;0.50;;;23.00;54.80;;;;;;4814348;29;20535;-76
2023/04/26 06:55:35;;;;;;;0.50;0.50;;;22.90;51.20;;;;;;4802019;29;20050;-76
2023/04/26 06:58:01;;;;;;;0.60;0.60;;;23.00;52.30;;;;;;4808025;29;20077;-77
2023/04/26 07:00:30;;;;;;;0.60;0.60;;;22.90;54.70;;;;;;4827110;29;20058;-74
2023/04/26 07:02:56;;;;;;;0.52;0.52;;;23.00;53.90;;;;;;4820737;29;20049;-76
2023/04/26 07:05:36;;;;;;;1.20;0.90;;;23.10;52.50;;;;;;4821953;29;20062;-77
2023/04/26 07:08:05;;;;;;;3.95;0.57;;;23.00;52.70;;;;;;4820784;29;20582;-74
2023/04/26 07:10:31;;;;;;;0.60;0.60;;;22.80;48.10;;;;;;4795158;29;20145;-71
2023/04/26 07:12:57;;;;;;;0.45;0.45;;;22.70;48.00;;;;;;4801528;29;20054;-72
2023/04/26 07:15:23;;;;;;;3.22;0.50;;;22.60;52.40;;;;;;4801854;29;20114;-72
2023/04/26 07:17:49;;;;;;;0.82;0.80;;;22.60;51.10;;;;;;4801792;29;20061;-74
2023/04/26 07:20:19;;;;;;;0.73;0.60;;;22.60;53.80;;;;;;4801696;29;20046;-73
2023/04/26 07:22:45;;;;;;;0.43;0.43;;;22.70;54.20;;;;;;4786672;29;20150;-74
2023/04/26 07:25:11;;;;;;;0.50;0.50;;;22.60;53.10;;;;;;4783990;29;20083;-73
2023/04/26 07:27:37;;;;;;;0.90;0.80;;;22.70;53.50;;;;;;4783880;30;20742;-72
2023/04/26 07:30:04;;;;;;;0.80;0.80;;;22.70;53.20;;;;;;4783714;30;20032;-72
2023/04/26 07:32:30;;;;;;;0.52;0.52;;;22.70;51.90;;;;;;4768653;30;20047;-71
2023/04/26 07:34:56;;;;;;;1.17;0.65;;;22.60;53.60;;;;;;4768460;30;20120;-71
2023/04/26 07:37:22;;;;;;;0.70;0.70;;;22.70;53.50;;;;;;4793742;29;20055;-71
2023/04/26 07:39:48;;;;;;;0.60;0.60;;;22.70;55.40;;;;;;4821478;29;20065;-71
2023/04/26 07:42:15;;;;;;;1.42;1.00;;;22.70;54.80;;;;;;4834679;29;20051;-70
2023/04/26 07:44:41;;;;;;;1.05;0.95;;;22.90;56.40;;;;;;4819938;29;20061;-75
2023/04/26 07:47:14;;;;;;;0.60;0.60;;;22.80;55.20;;;;;;4819776;29;20058;-72
2023/04/26 07:49:40;;;;;;;1.08;1.02;;;22.90;53.60;;;;;;4804611;29;20046;-74
2023/04/26 07:52:07;;;;;;;0.80;0.80;;;22.80;53.40;;;;;;4834777;29;20058;-74
2023/04/26 07:54:34;;;;;;;0.93;0.88;;;22.90;54.50;;;;;;4819697;29;20049;-73
2023/04/26 07:57:00;;;;;;;0.65;0.50;;;22.90;55.10;;;;;;4819404;29;20094;-71
2023/04/26 07:59:27;;;;;;;0.82;0.82;;;22.90;55.30;;;;;;4826412;29;20502;-72
2023/04/26 08:01:53;;;;;;;0.68;0.68;;;23.00;55.90;;;;;;4837726;29;20061;-72
2023/04/26 08:04:32;;;;;;;0.85;0.60;;;23.00;56.20;;;;;;4838130;29;20132;-72
2023/04/26 08:06:58;;;;;;;0.60;0.52;;;23.00;57.00;;;;;;4840227;29;20046;-71
2023/04/26 08:09:24;;;;;;;0.80;0.73;;;23.30;55.90;;;;;;4841227;29;20042;-72
2023/04/26 08:11:50;;;;;;;0.60;0.60;;;23.10;56.50;;;;;;4840658;29;20152;-73
2023/04/26 08:14:16;;;;;;;2.05;0.68;;;23.10;55.10;;;;;;4840550;29;20197;-73
2023/04/26 08:16:43;;;;;;;1.08;0.95;;;23.20;54.10;;;;;;4826555;29;20067;-73
2023/04/26 08:19:09;;;;;;;0.70;0.70;;;23.20;55.30;;;;;;4843359;29;20067;-71
2023/04/26 08:21:35;;;;;;;0.70;0.70;;;23.30;55.20;;;;;;4843086;29;20124;-73
2023/04/26 08:24:01;;;;;;;1.05;0.82;;;23.40;56.50;;;;;;4835611;29;20109;-71
2023/04/26 08:26:27;;;;;;;1.80;0.95;;;23.30;55.10;;;;;;4804079;29;20141;-69
2023/04/26 08:28:53;;;;;;;0.60;0.60;;;23.40;54.70;;;;;;4804116;29;20091;-71
2023/04/26 08:31:21;;;;;;;1.58;0.82;;;23.50;56.10;;;;;;4803483;29;20035;-72
2023/04/26 08:33:47;;;;;;;2.45;1.00;;;23.50;55.70;;;;;;4804418;29;20043;-72
2023/04/26 08:36:14;;;;;;;1.25;0.85;;;23.70;54.00;;;;;;4803994;29;20043;-73
2023/04/26 08:38:41;;;;;;;1.00;0.90;;;23.70;50.10;;;;;;4804114;29;20089;-71
2023/04/26 08:41:12;;;;;;;1.02;0.80;;;23.80;51.30;;;;;;4788695;29;20059;-71
2023/04/26 08:43:38;;;;;;;0.70;0.70;;;23.90;52.80;;;;;;4804027;29;20163;-73
2023/04/26 08:46:08;;;;;;;2.05;0.88;;;24.00;52.70;;;;;;4804037;29;20050;-72
2023/04/26 08:48:36;;;;;;;1.05;0.90;;;24.30;49.90;;;;;;4803980;29;20042;-72
2023/04/26 08:51:04;;;;;;;1.30;0.90;;;24.40;49.80;;;;;;4803950;29;20051;-72
2023/04/26 08:53:33;;;;;;;1.02;1.02;;;24.40;52.70;;;;;;4788848;29;20139;-71
2023/04/26 08:56:01;;;;;;;0.90;0.90;;;24.50;51.60;;;;;;4788714;29;20050;-71
2023/04/26 08:58:27;;;;;;;0.77;0.77;;;24.50;53.40;;;;;;4823239;29;20062;-72
2023/04/26 09:00:53;;;;;;;0.88;0.88;;;24.30;53.10;;;;;;4842180;29;20138;-72
2023/04/26 09:03:22;;;;;;;0.40;0.40;;;24.30;53.10;;;;;;4842389;29;20082;-73
2023/04/26 09:05:49;;;;;;;0.93;0.90;;;24.40;54.20;;;;;;4842530;29;20120;-72
2023/04/26 09:08:19;;;;;;;0.77;0.77;;;24.30;53.70;;;;;;4841432;29;20045;-72
2023/04/26 09:10:45;;;;;;;0.80;0.80;;;24.40;54.40;;;;;;4856302;29;20068;-72
2023/04/26 09:13:11;;;;;;;0.50;0.50;;;24.20;53.50;;;;;;4842062;29;20030;-73
2023/04/26 09:15:37;;;;;;;0.90;0.90;;;24.30;54.20;;;;;;4842230;29;20061;-71
2023/04/26 09:18:17;;;;;;;0.65;0.65;;;24.40;54.50;;;;;;4841597;29;20045;-73
2023/04/26 09:20:45;;;;;;;1.83;1.13;;;24.40;54.60;;;;;;4842321;29;20038;-72
2023/04/26 09:23:11;;;;;;;1.00;0.82;;;24.40;53.60;;;;;;4855888;29;20050;-72
2023/04/26 09:25:37;;;;;;;0.63;0.52;;;24.30;53.70;;;;;;4841878;29;20045;-72
2023/04/26 09:28:17;;;;;;;0.75;0.75;;;24.40;54.10;;;;;;4841815;29;20037;-72
2023/04/26 09:30:43;;;;;;;0.60;0.60;;;24.30;53.60;;;;;;4842093;29;20049;-72
2023/04/26 09:33:09;;;;;;;1.50;1.20;;;24.50;53.90;;;;;;4841751;29;20029;-74
2023/04/26 09:35:37;;;;;;;2.15;0.73;;;24.30;53.70;;;;;;4842051;29;20044;-72
2023/04/26 09:38:05;;;;;;;1.25;1.00;;;24.30;55.00;;;;;;4841710;29;20038;-73
2023/04/26 09:40:41;;;;;;;0.75;0.60;;;24.30;53.90;;;;;;4841842;29;20049;-72
2023/04/26 09:43:10;;;;;;;0.70;0.70;;;24.30;55.40;;;;;;4841692;29;20383;-74
2023/04/26 09:45:56;;;;;;;0.73;0.70;;;24.30;54.70;;;;;;4840666;29;20069;-71
2023/04/26 09:48:30;;;;;;;0.85;0.70;;;24.30;55.10;;;;;;4840298;29;20059;-72
2023/04/26 09:51:02;;;;;;;3.42;1.08;;;24.60;55.80;;;;;;4841819;29;20044;-72
2023/04/26 09:53:36;;;;;;;1.25;1.00;;;25.00;61.10;;;;;;4841490;29;20046;-72
2023/04/26 09:56:13;;;;;;;0.88;0.82;;;25.70;48.70;;;;;;4835956;29;20027;-76
2023/04/26 09:59:01;;;;;;;1.23;1.10;;;25.50;46.00;;;;;;4823228;29;20078;-71
2023/04/26 10:01:28;;;;;;;1.42;0.82;;;25.20;46.70;;;;;;4823262;29;20058;-73
2023/04/26 10:04:00;;;;;;;1.10;1.08;;;25.20;45.50;;;;;;4837115;29;20038;-72
2023/04/26 10:06:27;;;;;;;1.27;1.02;;;25.10;45.80;;;;;;4822971;29;20042;-72
2023/04/26 10:08:54;;;;;;;1.83;0.90;;;25.10;47.40;;;;;;4823112;29;20117;-71
2023/04/26 10:11:21;;;;;;;1.00;0.90;;;25.30;49.10;;;;;;4823290;29;20039;-71
2023/04/26 10:13:50;;;;;;;2.10;0.80;;;25.20;49.30;;;;;;4822798;29;20117;-71
2023/04/26 10:16:16;;;;;;;1.27;1.00;;;25.20;48.90;;;;;;4839204;29;20542;-71
2023/04/26 10:18:42;;;;;;;0.80;0.70;;;25.10;48.10;;;;;;4839727;29;20418;-72
2023/04/26 10:21:18;;;;;;;0.77;0.77;;;25.20;55.00;;;;;;4841237;29;20497;-71
2023/04/26 10:23:44;;;;;;;0.65;0.65;;;25.20;54.90;;;;;;4841076;29;20045;-72
2023/04/26 10:26:50;;;;;;;0.60;0.60;;;25.00;53.90;;;;;;4839352;29;20082;-73
2023/04/26 10:29:16;;;;;;;0.95;0.95;;;25.10;54.60;;;;;;4802714;29;20031;-73
2023/04/26 10:32:00;;;;;;;1.05;1.00;;;25.20;54.60;;;;;;4804430;29;20083;-71
2023/04/26 10:34:30;;;;;;;0.88;0.68;;;25.10;53.60;;;;;;4803345;29;20035;-72
2023/04/26 10:37:06;;;;;;;0.85;0.85;;;25.00;53.70;;;;;;4803228;29;20035;-73
2023/04/26 10:39:32;;;;;;;0.55;0.55;;;25.00;53.20;;;;;;4804514;29;20049;-72
2023/04/26 10:42:24;;;;;;;0.68;0.68;;;24.90;53.40;;;;;;4811287;29;20035;-72
2023/04/26 10:45:19;;;;;;;0.82;0.70;;;25.00;53.90;;;;;;4818204;29;20050;-72
2023/04/26 10:47:45;;;;;;;1.27;0.80;;;25.00;48.30;;;;;;4804446;29;20508;-72
2023/04/26 10:50:11;;;;;;;1.30;0.75;;;24.90;46.10;;;;;;4818199;29;20054;-71
2023/04/26 10:52:57;;;;;;;0.93;0.93;;;24.80;45.60;;;;;;4804216;29;20038;-70
2023/04/26 10:55:40;;;;;;;0.75;0.70;;;24.80;50.60;;;;;;4815563;29;20039;-71
2023/04/26 10:58:26;;;;;;;3.08;1.05;;;24.90;52.20;;;;;;4812580;29;20125;-71
2023/04/26 11:01:17;;;;;;;0.88;0.88;;;24.80;54.10;;;;;;4819094;29;20439;-71
2023/04/26 11:04:03;;;;;;;0.80;0.80;;;24.80;54.40;;;;;;4821563;29;20094;-71
2023/04/26 11:06:49;;;;;;;1.10;0.82;;;24.70;54.80;;;;;;4822103;29;20113;-72
2023/04/26 11:09:38;;;;;;;1.27;0.75;;;24.70;55.30;;;;;;4837697;29;20522;-71
2023/04/26 11:12:06;;;;;;;0.80;0.80;;;24.80;55.40;;;;;;4807511;29;20376;-71
2023/04/26 11:14:35;;;;;;;0.80;0.80;;;24.70;56.20;;;;;;4837818;29;20057;-72
2023/04/26 11:17:05;;;;;;;0.82;0.80;;;24.80;56.60;;;;;;4837900;29;20041;-73
2023/04/26 11:19:32;;;;;;;1.02;0.95;;;24.70;56.90;;;;;;4837885;29;20097;-73
2023/04/26 11:22:02;;;;;;;1.00;0.85;;;24.80;56.30;;;;;;4822625;29;20439;-74
2023/04/26 11:24:30;;;;;;;0.57;0.57;;;24.70;56.30;;;;;;4837783;29;20050;-73
2023/04/26 11:26:57;;;;;;;0.45;0.45;;;24.80;53.90;;;;;;4837964;29;20406;-78
2023/04/26 11:29:24;;;;;;;3.42;0.80;;;24.70;55.00;;;;;;4838200;29;20064;-76
2023/04/26 11:31:51;;;;;;;0.50;0.50;;;24.70;56.00;;;;;;4831211;29;20055;-74
2023/04/26 11:34:21;;;;;;;0.60;0.60;;;24.80;54.00;;;;;;4819529;29;20499;-75
2023/04/26 11:36:47;;;;;;;3.25;0.95;;;24.70;54.90;;;;;;4835274;29;20151;-78
2023/04/26 11:39:14;;;;;;;2.28;1.30;;;24.70;56.20;;;;;;4820495;29;20042;-79
2023/04/26 11:41:40;;;;;;;2.08;1.17;;;24.80;55.90;;;;;;4825043;29;20074;-75
2023/04/26 11:44:06;;;;;;;0.80;0.80;;;24.70;53.00;;;;;;4808175;29;20499;-75
2023/04/26 11:46:32;;;;;;;0.45;0.45;;;24.60;51.60;;;;;;4822527;29;20038;-75
2023/04/26 11:48:58;;;;;;;0.90;0.50;;;24.70;49.50;;;;;;4808835;29;20042;-76
2023/04/26 11:51:25;;;;;;;0.40;0.40;;;24.70;50.30;;;;;;4825221;29;20507;-75
2023/04/26 11:53:53;;;;;;;0.50;0.50;;;24.60;49.70;;;;;;4825990;29;20430;-78
2023/04/26 11:56:20;;;;;;;0.68;0.68;;;24.50;49.00;;;;;;4841618;29;20042;-74
2023/04/26 11:58:48;;;;;;;0.50;0.50;;;24.50;48.70;;;;;;4843791;29;21191;-75
2023/04/26 12:01:25;;;;;;;5.20;0.75;;;24.50;47.70;;;;;;4835114;29;20063;-76
2023/04/26 12:03:53;;;;;;;0.55;0.55;;;24.50;48.50;;;;;;4806172;29;20621;-75
2023/04/26 12:06:20;;;;;;;0.85;0.68;;;24.50;48.30;;;;;;4807396;29;20422;-75
2023/04/26 12:08:50;;;;;;;0.40;0.40;;;24.50;47.80;;;;;;4806271;29;20111;-77
2023/04/26 12:11:17;;;;;;;0.73;0.73;;;24.50;48.00;;;;;;4807570;29;20039;-78
2023/04/26 12:13:44;;;;;;;0.65;0.63;;;24.40;48.40;;;;;;4808157;29;20039;-74
2023/04/26 12:16:13;;;;;;;0.68;0.68;;;24.50;48.40;;;;;;4815273;29;20043;-76
2023/04/26 12:18:40;;;;;;;1.10;0.63;;;24.50;48.10;;;;;;4807050;29;20051;-74
2023/04/26 12:21:06;;;;;;;0.75;0.75;;;24.40;47.60;;;;;;4806517;29;20518;-73
2023/04/26 12:23:39;;;;;;;0.50;0.50;;;24.50;47.80;;;;;;4806678;29;20087;-74
2023/04/26 12:26:09;;;;;;;0.60;0.60;;;24.50;48.60;;;;;;4821517;29;20475;-76
2023/04/26 12:28:36;;;;;;;1.10;1.00;;;24.30;48.40;;;;;;4833459;29;20150;-77
2023/04/26 12:31:03;;;;;;;1.50;0.70;;;24.40;48.50;;;;;;4808813;29;20062;-75
2023/04/26 12:33:29;;;;;;;1.05;0.73;;;24.30;48.10;;;;;;4806772;29;20042;-75
2023/04/26 12:35:56;;;;;;;0.60;0.60;;;24.30;48.20;;;;;;4807127;29;20149;-74
2023/04/26 12:38:22;;;;;;;0.80;0.80;;;24.30;48.20;;;;;;4806675;29;20047;-75
2023/04/26 12:40:48;;;;;;;0.65;0.63;;;24.30;48.60;;;;;;4806426;29;20558;-74
2023/04/26 12:43:15;;;;;;;0.65;0.65;;;24.30;48.50;;;;;;4815826;29;20710;-74
2023/04/26 12:45:41;;;;;;;0.60;0.60;;;24.20;47.60;;;;;;4823830;29;20052;-74
2023/04/26 12:48:07;;;;;;;0.65;0.50;;;24.20;48.60;;;;;;4820952;29;20038;-74
2023/04/26 12:50:33;;;;;;;0.65;0.65;;;24.30;49.70;;;;;;4806740;29;20050;-74